KOLS/OLS METAR and TAF weather

Enter ICAO airport designator
Station Type Date Time Source
KOLS METAR 2020/01/20 18:54 UTC NOAA

KOLS 201854Z AUTO 17011KT 10SM CLR 23/01 A3015 RMK AO2 SLP168 T02280006 $


Station Type Date Time Source
KOLS Decoded METAR 2020/01/20 18:54 UTC NOAA

NOGALES INTERNATIONAL AIRPORT , AZ, United States (KOLS) 31-25N 110-51W 1184M
Jan 20, 2020 - 01:54 PM EST / 2020.01.20 1854 UTC
Wind: from the S (170 degrees) at 13 MPH (11 KT):0
Visibility: 10 mile(s):0
Sky conditions: clear
Temperature: 73.0 F (22.8 C)
Dew Point: 33.1 F (0.6 C)
Relative Humidity: 22%
Pressure (altimeter): 30.15 in. Hg (1020 hPa)
ob: KOLS 201854Z AUTO 17011KT 10SM CLR 23/01 A3015 RMK AO2 SLP168 T02280006
cycle: 19

Station Type Date Time Source
KOLS TAF 2020/01/20 18:42 UTC NOAA

TAF KOLS 201739Z 2018/2118 15006KT P6SM BKN250
FM202100 18008KT P6SM SCT140 BKN200
FM210200 11005KT P6SM SCT100 BKN140
FM210800 VRB04KT P6SM VCSH SCT060 BKN100
FM211400 20006KT P6SM -SHRA SCT040 OVC080

Example: see airport list